createdAt,value
2019-03-04T00:00:02.051Z,1.42
2019-03-04T00:01:57.562Z,1.45
2019-03-04T00:03:50.407Z,1.75
2019-03-04T00:05:43.308Z,1.62
2019-03-04T00:07:36.257Z,2.02
2019-03-04T00:09:29.076Z,1.40
2019-03-04T00:11:21.884Z,1.92
2019-03-04T00:13:15.546Z,1.80
2019-03-04T00:15:08.848Z,1.20
2019-03-04T00:17:01.478Z,1.77
2019-03-04T00:18:54.461Z,1.67
2019-03-04T00:20:47.261Z,1.47
2019-03-04T00:22:40.238Z,1.50
2019-03-04T00:24:33.220Z,1.70
2019-03-04T00:26:26.092Z,1.40
2019-03-04T00:28:19.056Z,1.30
2019-03-04T00:30:11.999Z,1.25
2019-03-04T00:32:05.996Z,1.35
2019-03-04T00:33:58.845Z,1.80
2019-03-04T00:35:51.672Z,1.52
2019-03-04T00:37:44.235Z,1.52
2019-03-04T00:39:37.183Z,1.42
2019-03-04T00:41:29.679Z,1.40
2019-03-04T00:43:22.474Z,1.55
2019-03-04T00:45:15.314Z,1.70
2019-03-04T00:49:00.404Z,1.40
2019-03-04T00:50:53.311Z,1.60
2019-03-04T00:52:47.421Z,1.72
2019-03-04T00:54:40.402Z,1.42
2019-03-04T00:56:33.245Z,1.70
2019-03-04T01:00:26.067Z,1.40
2019-03-04T01:02:19.104Z,1.37
2019-03-04T01:04:11.984Z,1.27
2019-03-04T01:06:04.586Z,0.80
2019-03-04T01:07:57.552Z,1.20
2019-03-04T01:11:42.669Z,1.30
2019-03-04T01:13:38.956Z,1.10
2019-03-04T01:15:32.286Z,1.47
2019-03-04T01:17:25.153Z,1.62
2019-03-04T01:19:18.055Z,1.42
2019-03-04T01:21:10.847Z,1.42
2019-03-04T01:23:03.772Z,1.40
2019-03-04T01:26:49.347Z,1.57
2019-03-04T01:28:42.169Z,1.25
2019-03-04T01:30:35.025Z,1.20
2019-03-04T01:32:28.284Z,1.50
2019-03-04T01:34:22.147Z,1.40
2019-03-04T01:38:07.046Z,1.20
2019-03-04T01:41:52.403Z,1.75
2019-03-04T01:43:45.288Z,1.57
2019-03-04T01:45:38.064Z,1.47
2019-03-04T01:47:30.642Z,1.25
2019-03-04T01:49:23.900Z,1.10
2019-03-04T01:51:16.770Z,1.20
2019-03-04T01:53:09.743Z,1.45
2019-03-04T01:55:02.607Z,1.02
2019-03-04T01:56:55.346Z,1.10
2019-03-04T01:58:48.274Z,1.17
2019-03-04T02:00:40.996Z,1.40
2019-03-04T02:02:33.842Z,0.98
2019-03-04T02:04:27.935Z,0.95
2019-03-04T02:06:20.598Z,1.35
2019-03-04T02:08:13.652Z,1.25
2019-03-04T02:10:11.945Z,0.90
2019-03-04T02:12:05.020Z,1.10
2019-03-04T02:13:57.928Z,1.10
2019-03-04T02:15:51.339Z,1.00
2019-03-04T02:17:44.256Z,1.20
2019-03-04T02:21:29.222Z,1.30
2019-03-04T02:23:22.168Z,1.10
2019-03-04T02:25:37.800Z,1.15
2019-03-04T02:27:31.589Z,1.42
2019-03-04T02:29:24.420Z,0.95
2019-03-04T02:31:18.242Z,1.07
2019-03-04T02:33:11.270Z,1.12
2019-03-04T02:35:05.133Z,1.40
2019-03-04T02:36:58.002Z,0.72
2019-03-04T02:38:50.809Z,1.02
2019-03-04T02:40:43.667Z,0.80
2019-03-04T02:44:29.033Z,1.00
2019-03-04T02:46:21.889Z,0.95
2019-03-04T02:50:08.140Z,0.80
2019-03-04T02:52:01.261Z,1.00
2019-03-04T02:53:54.010Z,1.05
2019-03-04T02:55:46.668Z,0.95
2019-03-04T02:57:40.739Z,1.07
2019-03-04T02:59:34.479Z,1.15
2019-03-04T03:01:27.280Z,0.85
2019-03-04T03:03:20.190Z,1.27
2019-03-04T03:07:05.449Z,1.17
2019-03-04T03:08:58.460Z,1.22
2019-03-04T03:10:51.162Z,1.02
2019-03-04T03:12:44.368Z,1.17
2019-03-04T03:14:37.228Z,1.17
2019-03-04T03:16:29.835Z,0.88
2019-03-04T03:18:23.144Z,0.85
2019-03-04T03:20:16.725Z,1.02
2019-03-04T03:22:09.623Z,0.70
2019-03-04T03:24:02.566Z,0.90
2019-03-04T03:25:55.373Z,1.15
2019-03-04T03:27:48.169Z,1.30
2019-03-04T03:29:42.156Z,1.17
2019-03-04T03:31:35.329Z,0.95
2019-03-04T03:33:28.090Z,1.00
2019-03-04T03:35:20.937Z,0.88
2019-03-04T03:37:13.680Z,0.80
2019-03-04T03:39:06.530Z,0.80
2019-03-04T03:41:00.557Z,0.90
2019-03-04T03:42:53.326Z,0.93
2019-03-04T03:44:46.684Z,1.10
2019-03-04T03:46:39.675Z,1.10
2019-03-04T03:48:32.509Z,0.90
2019-03-04T03:50:25.072Z,0.90
2019-03-04T03:52:17.960Z,1.17
2019-03-04T03:54:10.685Z,0.90
2019-03-04T03:56:04.046Z,1.07
2019-03-04T03:57:56.893Z,0.88
2019-03-04T03:59:49.764Z,1.00
2019-03-04T04:01:42.707Z,0.88
2019-03-04T04:03:35.526Z,1.00
2019-03-04T04:05:28.332Z,1.52
2019-03-04T04:09:13.659Z,0.90
2019-03-04T04:11:06.475Z,0.80
2019-03-04T04:13:00.959Z,1.10
2019-03-04T04:14:53.985Z,1.00
2019-03-04T04:16:46.888Z,1.35
2019-03-04T04:18:39.961Z,1.05
2019-03-04T04:20:33.024Z,0.90
2019-03-04T04:22:25.897Z,1.20
2019-03-04T04:26:23.306Z,0.80
2019-03-04T04:28:16.018Z,1.32
2019-03-04T04:30:11.913Z,0.90
2019-03-04T04:32:04.606Z,1.00
2019-03-04T04:33:57.576Z,0.93
2019-03-04T04:35:50.748Z,1.05
2019-03-04T04:37:44.000Z,1.30
2019-03-04T04:39:36.559Z,0.80
2019-03-04T04:41:29.518Z,0.93
2019-03-04T04:43:22.524Z,1.20
2019-03-04T04:45:15.416Z,1.30
2019-03-04T04:47:08.092Z,1.50
2019-03-04T04:49:00.903Z,1.00
2019-03-04T04:50:53.885Z,1.37
2019-03-04T04:52:47.007Z,0.90
2019-03-04T04:54:39.908Z,0.90
2019-03-04T04:56:32.703Z,1.20
2019-03-04T04:58:25.457Z,1.00
2019-03-04T05:00:20.035Z,1.00
2019-03-04T05:02:13.206Z,2.00
2019-03-04T05:04:06.052Z,1.32
2019-03-04T05:05:58.873Z,1.42
2019-03-04T05:07:52.141Z,1.07
2019-03-04T05:09:45.028Z,1.00
2019-03-04T05:11:38.665Z,1.25
2019-03-04T05:13:31.892Z,1.02
2019-03-04T05:15:24.789Z,1.02
2019-03-04T05:17:17.769Z,0.95
2019-03-04T05:19:10.676Z,1.17
2019-03-04T05:21:03.508Z,1.37
2019-03-04T05:22:56.476Z,1.25
2019-03-04T05:24:49.363Z,1.17
2019-03-04T05:26:42.324Z,1.35
2019-03-04T05:28:35.457Z,1.10
2019-03-04T05:30:28.478Z,1.25
2019-03-04T05:32:22.077Z,1.30
2019-03-04T05:34:16.057Z,1.20
2019-03-04T05:36:08.934Z,1.32
2019-03-04T05:38:02.529Z,1.07
2019-03-04T05:39:55.389Z,2.25
2019-03-04T05:43:40.862Z,1.47
2019-03-04T05:45:34.005Z,1.50
2019-03-04T05:47:27.268Z,1.70
2019-03-04T05:49:20.414Z,1.75
2019-03-04T05:51:13.385Z,2.05
2019-03-04T05:53:06.221Z,1.50
2019-03-04T05:54:59.212Z,2.02
2019-03-04T05:56:52.749Z,1.52
2019-03-04T05:58:45.839Z,1.60
2019-03-04T06:00:46.480Z,1.80
2019-03-04T06:02:39.257Z,1.60
2019-03-04T06:04:31.928Z,1.67
2019-03-04T06:06:43.013Z,1.40
2019-03-04T06:08:36.037Z,1.50
2019-03-04T06:10:29.159Z,1.30
2019-03-04T06:12:21.936Z,1.35
2019-03-04T06:14:14.998Z,2.27
2019-03-04T06:16:07.832Z,1.75
2019-03-04T06:18:00.577Z,2.22
2019-03-04T06:19:53.118Z,1.90
2019-03-04T06:21:46.197Z,1.67
2019-03-04T06:23:39.178Z,1.65
2019-03-04T06:25:32.061Z,2.00
2019-03-04T06:27:24.899Z,2.08
2019-03-04T06:31:10.130Z,1.45
2019-03-04T06:33:02.929Z,1.47
2019-03-04T06:34:55.931Z,1.92
2019-03-04T06:36:48.810Z,1.40
2019-03-04T06:38:41.831Z,1.80
2019-03-04T06:40:34.735Z,1.90
2019-03-04T06:42:27.940Z,2.08
2019-03-04T06:46:12.788Z,1.50
2019-03-04T06:50:00.287Z,1.62
2019-03-04T06:51:54.220Z,1.55
2019-03-04T06:54:02.371Z,1.98
2019-03-04T06:56:30.086Z,1.52
2019-03-04T06:58:23.434Z,1.60
2019-03-04T07:00:22.427Z,1.67
2019-03-04T07:02:21.254Z,1.45
2019-03-04T07:04:20.082Z,1.80
2019-03-04T07:06:13.766Z,2.37
2019-03-04T07:09:59.133Z,1.90
2019-03-04T07:11:51.950Z,2.10
2019-03-04T07:13:44.768Z,1.77
2019-03-04T07:15:37.592Z,1.70
2019-03-04T07:17:30.845Z,1.75
2019-03-04T07:19:23.472Z,1.82
2019-03-04T07:21:16.489Z,1.90
2019-03-04T07:23:09.485Z,2.00
2019-03-04T07:25:02.416Z,2.08
2019-03-04T07:26:55.360Z,1.98
2019-03-04T07:28:48.358Z,1.52
2019-03-04T07:32:33.668Z,1.60
2019-03-04T07:34:26.785Z,1.85
2019-03-04T07:36:20.184Z,2.45
2019-03-04T07:40:17.993Z,1.52
2019-03-04T07:42:10.647Z,2.30
2019-03-04T07:45:55.703Z,1.65
2019-03-04T07:47:48.626Z,1.80
2019-03-04T07:49:41.693Z,2.05
2019-03-04T07:51:34.797Z,2.40
2019-03-04T07:55:19.945Z,1.35
2019-03-04T07:57:12.774Z,1.55
2019-03-04T07:59:05.314Z,1.32
2019-03-04T08:00:58.717Z,2.30
2019-03-04T08:02:52.027Z,2.80
2019-03-04T08:04:44.844Z,2.70
2019-03-04T08:06:37.779Z,2.80
2019-03-04T08:08:30.756Z,3.80
2019-03-04T08:10:48.545Z,3.67
2019-03-04T08:12:56.980Z,2.50
2019-03-04T08:14:50.124Z,2.40
2019-03-04T08:16:43.074Z,2.52
2019-03-04T08:20:27.841Z,1.80
2019-03-04T08:24:14.436Z,2.17
2019-03-04T08:27:59.748Z,1.70
2019-03-04T08:29:52.282Z,1.90
2019-03-04T08:31:45.921Z,1.67
2019-03-04T08:33:39.211Z,2.25
2019-03-04T08:35:31.843Z,2.27
2019-03-04T08:37:25.079Z,2.05
2019-03-04T08:39:18.429Z,2.22
2019-03-04T08:41:11.692Z,2.17
2019-03-04T08:43:04.560Z,3.87
2019-03-04T08:46:50.103Z,4.03
2019-03-04T08:48:42.946Z,2.45
2019-03-04T08:50:35.793Z,2.02
2019-03-04T08:52:28.610Z,2.62
2019-03-04T08:54:21.579Z,2.58
2019-03-04T08:56:14.227Z,2.27
2019-03-04T08:58:07.306Z,2.75
2019-03-04T09:00:00.289Z,2.52
2019-03-04T09:03:45.356Z,1.77
2019-03-04T09:07:30.596Z,1.70
2019-03-04T09:11:15.953Z,1.45
2019-03-04T09:15:01.181Z,1.90
2019-03-04T09:16:54.106Z,2.55
2019-03-04T09:20:39.844Z,1.82
2019-03-04T09:22:32.460Z,1.85
2019-03-04T09:24:24.991Z,1.80
2019-03-04T09:28:10.144Z,1.50
2019-03-04T09:30:04.379Z,1.42
2019-03-04T09:31:57.516Z,1.35
2019-03-04T09:33:51.410Z,1.10
2019-03-04T09:35:44.214Z,1.40
2019-03-04T09:39:29.743Z,1.40
2019-03-04T09:41:22.604Z,1.70
2019-03-04T09:43:15.641Z,1.37
2019-03-04T09:45:13.360Z,1.40
2019-03-04T09:47:06.555Z,1.40
2019-03-04T09:48:59.590Z,1.30
2019-03-04T09:50:52.450Z,1.50
2019-03-04T09:52:45.410Z,1.40
2019-03-04T09:54:38.541Z,1.60
2019-03-04T09:56:31.363Z,1.40
2019-03-04T10:00:35.320Z,1.72
2019-03-04T10:02:27.989Z,1.52
2019-03-04T10:04:36.196Z,1.70
2019-03-04T10:06:50.503Z,1.62
2019-03-04T10:09:20.286Z,1.62
2019-03-04T10:11:19.185Z,1.45
2019-03-04T10:13:27.234Z,1.50
2019-03-04T10:15:31.799Z,1.35
2019-03-04T10:17:36.741Z,1.72
2019-03-04T10:19:49.778Z,1.32
2019-03-04T10:21:57.707Z,1.50
2019-03-04T10:24:26.976Z,1.60
2019-03-04T10:26:38.518Z,1.50
2019-03-04T10:28:52.790Z,1.70
2019-03-04T10:30:52.078Z,1.42
2019-03-04T10:33:00.026Z,1.85
2019-03-04T10:35:15.544Z,1.70
2019-03-04T10:37:28.488Z,2.00
2019-03-04T10:39:36.723Z,1.80
2019-03-04T10:41:48.075Z,1.80
2019-03-04T10:43:47.057Z,2.00
2019-03-04T10:46:12.381Z,1.57
2019-03-04T10:48:05.533Z,1.47
2019-03-04T10:49:58.497Z,1.92
2019-03-04T10:51:51.413Z,1.65
2019-03-04T10:53:44.333Z,1.72
2019-03-04T10:55:41.989Z,1.65
2019-03-04T10:57:33.097Z,1.60
2019-03-04T10:59:26.041Z,2.00
2019-03-04T11:01:19.356Z,2.20
2019-03-04T11:03:12.109Z,1.77
2019-03-04T11:06:57.601Z,2.00
2019-03-04T11:08:50.320Z,2.37
2019-03-04T11:10:43.509Z,2.50
2019-03-04T11:12:36.423Z,1.92
2019-03-04T11:14:29.142Z,2.22
2019-03-04T11:16:22.005Z,1.70
2019-03-04T11:18:14.905Z,1.77
2019-03-04T11:20:08.935Z,1.40
2019-03-04T11:22:02.295Z,1.70
2019-03-04T11:23:55.585Z,2.05
2019-03-04T11:25:48.334Z,1.62
2019-03-04T11:29:34.164Z,1.90
2019-03-04T11:31:27.031Z,1.72
2019-03-04T11:33:20.159Z,1.67
2019-03-04T11:35:12.995Z,1.72
2019-03-04T11:37:07.024Z,1.95
2019-03-04T11:40:55.624Z,1.87
2019-03-04T11:42:50.528Z,1.62
2019-03-04T11:44:42.967Z,1.77
2019-03-04T11:46:35.804Z,1.85
2019-03-04T11:48:28.628Z,1.60
2019-03-04T11:50:21.534Z,1.60
2019-03-04T11:52:14.622Z,1.40
2019-03-04T11:54:07.472Z,0.90
2019-03-04T11:56:00.410Z,1.30
2019-03-04T11:57:53.417Z,1.10
2019-03-04T11:59:46.493Z,0.90
2019-03-04T12:01:40.948Z,0.72
2019-03-04T12:03:34.032Z,0.60
2019-03-04T12:05:27.213Z,0.90
2019-03-04T12:07:21.260Z,0.72
2019-03-04T12:09:15.998Z,0.65
2019-03-04T12:11:08.902Z,0.60
2019-03-04T12:13:01.829Z,0.90
2019-03-04T12:14:54.844Z,0.60
2019-03-04T12:16:47.399Z,0.70
2019-03-04T12:20:32.770Z,1.02
2019-03-04T12:22:25.766Z,1.10
2019-03-04T12:24:20.001Z,1.22
2019-03-04T12:26:13.094Z,0.98
2019-03-04T12:28:06.885Z,0.80
2019-03-04T12:29:59.620Z,0.85
2019-03-04T12:31:54.102Z,0.75
2019-03-04T12:33:46.786Z,0.55
2019-03-04T12:37:32.455Z,0.90
2019-03-04T12:41:17.466Z,0.55
2019-03-04T12:43:10.393Z,0.70
2019-03-04T12:45:04.145Z,0.60
2019-03-04T12:46:57.971Z,0.75
2019-03-04T12:48:50.830Z,0.72
2019-03-04T12:50:43.731Z,0.75
2019-03-04T12:52:36.638Z,0.93
2019-03-04T12:54:29.584Z,0.78
2019-03-04T12:56:22.238Z,1.00
2019-03-04T12:58:15.057Z,1.10
2019-03-04T13:00:11.406Z,1.07
2019-03-04T13:02:05.851Z,0.85
2019-03-04T13:03:58.958Z,1.12
2019-03-04T13:05:51.799Z,0.80
2019-03-04T13:07:45.460Z,0.93
2019-03-04T13:11:30.473Z,0.70
2019-03-04T13:15:35.069Z,0.80
2019-03-04T13:17:28.193Z,1.05
2019-03-04T13:19:21.057Z,0.93
2019-03-04T13:23:06.394Z,0.90
2019-03-04T13:24:59.712Z,0.88
2019-03-04T13:26:52.537Z,0.85
2019-03-04T13:28:45.358Z,1.05
2019-03-04T13:30:40.116Z,1.00
2019-03-04T13:32:32.624Z,1.00
2019-03-04T13:34:25.770Z,0.70
2019-03-04T13:36:18.816Z,0.90
2019-03-04T13:40:06.667Z,0.68
2019-03-04T13:42:00.028Z,0.80
2019-03-04T13:43:52.815Z,0.82
2019-03-04T13:45:46.131Z,0.70
2019-03-04T13:47:39.398Z,0.90
2019-03-04T13:49:32.585Z,1.20
2019-03-04T13:53:17.442Z,0.95
2019-03-04T13:55:10.822Z,0.65
2019-03-04T13:57:03.792Z,1.17
2019-03-04T14:00:48.908Z,0.60
2019-03-04T14:02:41.712Z,0.95
2019-03-04T14:04:34.368Z,0.68
2019-03-04T14:08:19.619Z,0.60
2019-03-04T14:10:18.280Z,1.05
2019-03-04T14:12:11.621Z,0.60
2019-03-04T14:14:06.849Z,0.42
2019-03-04T14:16:00.098Z,0.78
2019-03-04T14:17:53.383Z,1.05
2019-03-04T14:19:46.267Z,0.85
2019-03-04T14:21:39.810Z,1.32
2019-03-04T14:23:33.262Z,0.60
2019-03-04T14:27:19.003Z,0.60
2019-03-04T14:29:11.872Z,0.65
2019-03-04T14:31:05.350Z,0.88
2019-03-04T14:32:58.091Z,1.37
2019-03-04T14:34:51.943Z,0.75
2019-03-04T14:36:46.270Z,0.50
2019-03-04T14:38:39.079Z,0.60
2019-03-04T14:40:31.946Z,0.53
2019-03-04T14:42:24.880Z,0.60
2019-03-04T14:44:17.651Z,0.60
2019-03-04T14:46:14.084Z,0.62
2019-03-04T14:48:07.030Z,0.75
2019-03-04T14:50:09.599Z,0.50
2019-03-04T14:51:55.785Z,0.90
2019-03-04T14:53:48.641Z,0.68
2019-03-04T14:55:42.529Z,0.85
2019-03-04T14:57:35.468Z,0.57
2019-03-04T14:59:28.465Z,0.70
2019-03-04T15:01:21.382Z,0.68
2019-03-04T15:03:22.039Z,0.78
2019-03-04T15:05:08.988Z,0.75
2019-03-04T15:07:03.065Z,0.80
2019-03-04T15:10:48.207Z,0.88
2019-03-04T15:12:40.975Z,0.60
2019-03-04T15:14:33.666Z,0.78
2019-03-04T15:16:26.513Z,0.78
2019-03-04T15:20:20.042Z,0.90
2019-03-04T15:22:13.049Z,0.60
2019-03-04T15:24:05.925Z,0.80
2019-03-04T15:25:58.677Z,0.95
2019-03-04T15:27:51.817Z,0.78
2019-03-04T15:29:44.449Z,0.70
2019-03-04T15:31:37.336Z,0.72
2019-03-04T15:33:30.202Z,0.90
2019-03-04T15:35:23.227Z,0.98
2019-03-04T15:37:16.295Z,1.87
2019-03-04T15:39:11.313Z,0.85
2019-03-04T15:41:04.608Z,0.90
2019-03-04T15:42:57.969Z,0.95
2019-03-04T15:44:50.880Z,1.47
2019-03-04T15:46:43.780Z,1.10
2019-03-04T15:48:36.612Z,0.80
2019-03-04T15:50:29.620Z,1.20
2019-03-04T15:52:24.660Z,0.90
2019-03-04T15:54:17.661Z,0.85
2019-03-04T15:56:10.779Z,1.00
2019-03-04T15:59:55.933Z,1.32
2019-03-04T16:01:48.822Z,1.40
2019-03-04T16:03:41.574Z,1.10
2019-03-04T16:05:34.434Z,1.15
2019-03-04T16:07:27.445Z,1.10
2019-03-04T16:09:20.698Z,1.52
2019-03-04T16:11:13.784Z,1.47
2019-03-04T16:13:08.263Z,1.35
2019-03-04T16:15:00.995Z,1.45
2019-03-04T16:16:55.284Z,1.17
2019-03-04T16:18:48.327Z,1.87
2019-03-04T16:22:33.736Z,2.27
2019-03-04T16:24:26.440Z,1.70
2019-03-04T16:26:19.317Z,1.45
2019-03-04T16:28:20.956Z,1.77
2019-03-04T16:30:19.861Z,1.45
2019-03-04T16:32:12.817Z,1.40
2019-03-04T16:34:05.373Z,1.55
2019-03-04T16:35:57.984Z,1.15
2019-03-04T16:37:50.861Z,1.80
2019-03-04T16:39:44.372Z,1.57
2019-03-04T16:41:37.134Z,1.32
2019-03-04T16:43:29.784Z,1.57
2019-03-04T16:45:23.383Z,1.42
2019-03-04T16:47:16.380Z,1.60
2019-03-04T16:49:09.293Z,1.47
2019-03-04T16:51:02.324Z,1.57
2019-03-04T16:54:49.312Z,2.08
2019-03-04T16:56:42.282Z,3.62
2019-03-04T16:58:35.052Z,1.12
2019-03-04T17:00:27.862Z,1.65
2019-03-04T17:02:20.699Z,1.65
2019-03-04T17:04:13.988Z,1.45
2019-03-04T17:07:59.399Z,1.25
2019-03-04T17:11:44.687Z,2.27
2019-03-04T17:15:30.233Z,1.10
2019-03-04T17:17:23.061Z,1.35
2019-03-04T17:21:08.664Z,1.10
2019-03-04T17:23:01.472Z,1.40
2019-03-04T17:24:54.029Z,1.00
2019-03-04T17:28:39.329Z,1.00
2019-03-04T17:30:32.464Z,1.00
2019-03-04T17:32:25.784Z,0.90
2019-03-04T17:34:18.640Z,1.10
2019-03-04T17:36:11.421Z,0.90
2019-03-04T17:38:04.433Z,1.27
2019-03-04T17:39:57.229Z,1.10
2019-03-04T17:43:42.712Z,1.30
2019-03-04T17:47:28.233Z,1.20
2019-03-04T17:49:21.120Z,1.47
2019-03-04T17:51:13.955Z,1.02
2019-03-04T17:53:17.407Z,1.30
2019-03-04T17:55:12.899Z,1.40
2019-03-04T17:57:06.181Z,1.10
2019-03-04T17:58:59.523Z,1.07
2019-03-04T18:02:46.266Z,1.22
2019-03-04T18:04:39.684Z,2.17
2019-03-04T18:06:32.879Z,1.27
2019-03-04T18:08:25.809Z,1.07
2019-03-04T18:12:11.517Z,1.10
2019-03-04T18:14:04.635Z,1.00
2019-03-04T18:15:57.766Z,0.90
2019-03-04T18:19:43.289Z,0.93
2019-03-04T18:21:36.400Z,1.02
2019-03-04T18:23:29.505Z,1.07
2019-03-04T18:27:33.328Z,0.78
2019-03-04T18:29:48.023Z,0.82
2019-03-04T18:31:50.686Z,0.62
2019-03-04T18:34:05.580Z,0.68
2019-03-04T18:36:17.649Z,0.70
2019-03-04T18:38:29.515Z,1.15
2019-03-04T18:40:41.493Z,0.90
2019-03-04T18:42:37.848Z,0.60
2019-03-04T18:44:41.825Z,0.68
2019-03-04T18:46:53.417Z,0.75
2019-03-04T18:48:57.727Z,1.00
2019-03-04T18:50:51.305Z,1.22
2019-03-04T18:52:45.144Z,1.30
2019-03-04T18:54:39.121Z,0.95
2019-03-04T18:56:33.511Z,1.00
2019-03-04T18:58:28.338Z,0.82
2019-03-04T19:00:26.869Z,0.93
2019-03-04T19:02:21.113Z,0.70
2019-03-04T19:04:15.626Z,1.02
2019-03-04T19:06:09.958Z,1.20
2019-03-04T19:08:04.439Z,1.27
2019-03-04T19:09:58.990Z,1.00
2019-03-04T19:11:54.665Z,0.75
2019-03-04T19:13:49.265Z,1.00
2019-03-04T19:15:43.447Z,1.90
2019-03-04T19:17:38.440Z,1.98
2019-03-04T19:19:33.853Z,0.70
2019-03-04T19:21:31.819Z,0.90
2019-03-04T19:23:26.384Z,1.40
2019-03-04T19:25:21.076Z,1.20
2019-03-04T19:27:17.182Z,0.70
2019-03-04T19:29:11.364Z,0.70
2019-03-04T19:31:06.071Z,1.15
2019-03-04T19:33:00.569Z,0.90
2019-03-04T19:34:55.039Z,0.80
2019-03-04T19:36:49.924Z,1.15
2019-03-04T19:38:44.656Z,1.32
2019-03-04T19:40:39.117Z,1.00
2019-03-04T19:42:33.890Z,1.10
2019-03-04T19:44:28.371Z,1.10
2019-03-04T19:46:22.943Z,1.35
2019-03-04T19:48:17.663Z,0.98
2019-03-04T19:50:12.812Z,1.20
2019-03-04T19:52:07.608Z,1.05
2019-03-04T19:54:03.107Z,1.62
2019-03-04T19:55:50.810Z,1.35
2019-03-04T19:57:26.631Z,1.60
2019-03-04T19:59:03.032Z,1.20
2019-03-04T20:00:38.784Z,1.57
2019-03-04T20:02:14.658Z,1.10
2019-03-04T20:03:51.451Z,0.90
2019-03-04T20:05:27.225Z,1.10
2019-03-04T20:07:03.039Z,1.15
2019-03-04T20:08:38.890Z,0.90
2019-03-04T20:10:15.830Z,1.25
2019-03-04T20:11:52.243Z,1.35
2019-03-04T20:13:48.054Z,1.55
2019-03-04T20:15:25.272Z,0.90
2019-03-04T20:17:02.522Z,1.27
2019-03-04T20:18:41.590Z,1.10
2019-03-04T20:20:36.420Z,1.05
2019-03-04T20:22:30.772Z,0.80
2019-03-04T20:24:26.614Z,0.80
2019-03-04T20:26:21.331Z,1.37
2019-03-04T20:28:17.458Z,1.37
2019-03-04T20:30:17.368Z,1.20
2019-03-04T20:32:11.846Z,0.88
2019-03-04T20:34:06.597Z,1.30
2019-03-04T20:36:01.210Z,1.00
2019-03-04T20:38:08.085Z,0.95
2019-03-04T20:40:03.343Z,1.00
2019-03-04T20:41:58.111Z,0.82
2019-03-04T20:43:52.689Z,0.70
2019-03-04T20:45:46.869Z,1.45
2019-03-04T20:47:41.458Z,1.25
2019-03-04T20:49:37.119Z,0.85
2019-03-04T20:51:31.413Z,1.17
2019-03-04T20:53:26.075Z,1.35
2019-03-04T20:55:20.526Z,1.10
2019-03-04T20:57:14.605Z,1.67
2019-03-04T20:59:09.227Z,1.20
2019-03-04T21:01:04.353Z,1.12
2019-03-04T21:02:59.105Z,1.27
2019-03-04T21:04:53.801Z,1.25
2019-03-04T21:06:48.503Z,1.50
2019-03-04T21:08:44.803Z,1.70
2019-03-04T21:10:40.419Z,1.30
2019-03-04T21:12:35.063Z,1.35
2019-03-04T21:14:29.607Z,1.57
2019-03-04T21:16:24.722Z,1.55
2019-03-04T21:18:19.458Z,1.57
2019-03-04T21:20:18.125Z,1.50
2019-03-04T21:22:12.261Z,1.62
2019-03-04T21:24:06.949Z,2.10
2019-03-04T21:26:04.256Z,2.65
2019-03-04T21:27:58.633Z,1.37
2019-03-04T21:30:08.210Z,1.60
2019-03-04T21:32:17.803Z,1.80
2019-03-04T21:34:48.643Z,1.98
2019-03-04T21:37:02.692Z,1.40
2019-03-04T21:41:07.298Z,1.67
2019-03-04T21:43:07.536Z,1.30
2019-03-04T21:45:07.942Z,1.70
2019-03-04T21:47:10.667Z,2.47
2019-03-04T21:49:07.183Z,1.32
2019-03-04T21:51:13.292Z,1.50
2019-03-04T21:53:12.896Z,2.12
2019-03-04T21:55:18.435Z,1.50
2019-03-04T21:57:23.205Z,1.45
2019-03-04T21:59:17.241Z,1.40
2019-03-04T22:01:19.128Z,1.77
2019-03-04T22:03:16.553Z,1.37
2019-03-04T22:05:12.856Z,1.60
2019-03-04T22:07:06.437Z,1.75
2019-03-04T22:09:00.300Z,1.98
2019-03-04T22:10:52.923Z,1.42
2019-03-04T22:12:46.161Z,1.15
2019-03-04T22:14:40.748Z,1.95
2019-03-04T22:16:37.935Z,1.55
2019-03-04T22:18:30.729Z,1.32
2019-03-04T22:20:23.660Z,1.32
2019-03-04T22:22:16.612Z,1.55
2019-03-04T22:24:09.578Z,1.80
2019-03-04T22:26:02.464Z,1.62
2019-03-04T22:27:56.556Z,1.82
2019-03-04T22:29:50.792Z,1.50
2019-03-04T22:31:43.346Z,1.37
2019-03-04T22:33:36.214Z,1.40
2019-03-04T22:35:28.873Z,1.35
2019-03-04T22:37:21.781Z,1.60
2019-03-04T22:39:14.703Z,1.82
2019-03-04T22:41:07.648Z,1.30
2019-03-04T22:43:01.301Z,1.35
2019-03-04T22:44:54.135Z,1.57
2019-03-04T22:48:39.134Z,1.10
2019-03-04T22:52:24.439Z,1.40
2019-03-04T22:54:17.257Z,1.80
2019-03-04T22:56:11.292Z,1.30
2019-03-04T22:58:04.162Z,1.20
2019-03-04T22:59:57.603Z,1.65
2019-03-04T23:01:54.274Z,3.05
2019-03-04T23:03:48.311Z,0.80
2019-03-04T23:05:41.272Z,1.12
2019-03-04T23:07:34.388Z,1.67
2019-03-04T23:09:33.508Z,0.90
2019-03-04T23:11:29.465Z,1.20
2019-03-04T23:13:34.265Z,0.90
2019-03-04T23:15:27.141Z,1.10
2019-03-04T23:17:20.064Z,1.20
2019-03-04T23:19:12.994Z,1.40
2019-03-04T23:21:06.616Z,0.78
2019-03-04T23:22:59.389Z,0.90
2019-03-04T23:24:52.222Z,0.88
2019-03-04T23:28:37.156Z,0.70
2019-03-04T23:30:30.100Z,0.93
2019-03-04T23:32:22.860Z,0.80
2019-03-04T23:36:08.052Z,0.75
2019-03-04T23:38:01.326Z,0.70
2019-03-04T23:41:46.536Z,1.02
2019-03-04T23:45:31.871Z,0.60
2019-03-04T23:47:24.735Z,1.27
2019-03-04T23:49:17.286Z,1.02
2019-03-04T23:51:10.062Z,0.85
2019-03-04T23:53:02.995Z,0.70
2019-03-04T23:54:55.925Z,0.70
2019-03-04T23:56:48.737Z,0.80
2019-03-04T23:58:41.558Z,0.98
